Terminal Aerodrome Forecast
Issued by NWS

Home | Current Version | Previous Version | Text Only | Print | Product List | Glossary On
Versions: 1 2 3 4 5 6 7 8 9 10 11 12 13 14 15 16 17 18 19 20 21 22 23 24 25 26 27 28 29 30 31 32 33
000
FTUS42 KCAE 052339
TAFDNL
TAF
KDNL 052339Z 0600/0624 20010G17KT P6SM SCT040 BKN100
     FM060200 20007KT P6SM SCT040 BKN100
     FM060500 VRB03KT P6SM BKN150
     FM061400 24008KT P6SM FEW050 SCT150
     FM062000 23008KT P6SM VCSH BKN045 BKN120=

USA.gov is the U.S. government's official web portal to all federal, state and local government web resources and services.